Overview Statistics Trail Chart Weather Telemetry Raw packets
 

This is the latest recevied telemetry packets stored in our database for station/object DL4ML-12. If no packets are shown the sender has not sent any telemetry packets the latest 10 day(s).

Telemetry packets is used to share measurements like repeteater parameters, battery voltage, radiation readings (or any other measurements).

<< 1 2 3 4 >>
Time Press* Temp.in* Hum* QNH* Temp.out*
1788658613 990.4 hPa 28.1 C deg 0 % 1030 hPa 0 C deg
1788656798 990.4 hPa 28.3 C deg 0 % 1030 hPa 0 C deg
1788654983 990.3 hPa 28.4 C deg 0 % 1029.9 hPa 0 C deg
1788653168 990.1 hPa 28.7 C deg 0 % 1029.7 hPa 0 C deg
1788651353 990 hPa 28.9 C deg 0 % 1029.5 hPa 0 C deg
1788649538 989.8 hPa 29.1 C deg 0 % 1029.3 hPa 0 C deg
1788647722 989.6 hPa 29.4 C deg 0 % 1029 hPa 0 C deg
1788645907 989.5 hPa 29.6 C deg 0 % 1028.9 hPa 0 C deg
1788644092 989.2 hPa 30 C deg 0 % 1028.5 hPa 0 C deg
1788642277 989.2 hPa 30.3 C deg 0 % 1028.4 hPa 0 C deg
1788640462 988.9 hPa 30.6 C deg 0 % 1028.1 hPa 0 C deg
1788638647 988.5 hPa 31 C deg 0 % 1027.6 hPa 0 C deg
1788636832 988.2 hPa 31.5 C deg 0 % 1027.4 hPa 0 C deg
1788635017 987.9 hPa 32.6 C deg 0 % 1026.8 hPa 0 C deg
1788633202 987.6 hPa 32.9 C deg 0 % 1026.5 hPa 0 C deg
1788631387 987.2 hPa 33.7 C deg 0 % 1025.9 hPa 0 C deg
1788629572 986.9 hPa 34.5 C deg 0 % 1025.6 hPa 0 C deg
1788627757 986.7 hPa 34.6 C deg 0 % 1025.3 hPa 0 C deg
1788625972 986.5 hPa 34.4 C deg 0 % 1025.2 hPa 0 C deg
1788624126 986.4 hPa 34.3 C deg 0 % 1025.1 hPa 0 C deg
1788622311 986.4 hPa 33.7 C deg 0 % 1025.2 hPa 0 C deg
1788620496 986.3 hPa 33.2 C deg 0 % 1025.1 hPa 0 C deg
1788618681 986.2 hPa 32.7 C deg 0 % 1025.1 hPa 0 C deg
1788616866 986.3 hPa 32.2 C deg 0 % 1025.3 hPa 0 C deg
1788615051 986.3 hPa 31.9 C deg 0 % 1025.3 hPa 0 C deg
*Used Equation Coefficients:
Press: 0, 1, 0
Temp.in: 0, 1, 0
Hum: 0, 1, 0
QNH: 0, 1, 0
Temp.out: 0, 1, 0

  • The parameter names for the analog channels will be Value1, Value2, Value3 (up to Value5) if station has not sent a PARAM-packet that specifies the parameter names for each analog channel.
  • Each analog value is a decimal number between 000 and 255 (according to APRS specifications). The receiver use the telemetry equation coefficientsto to restore the original sensor values. If no EQNS-packet with equation coefficients is sent we will show the values as is (this corresponds to the equation coefficients a=0, b=1 and c=0).
    The sent equation coefficients is used in the equation: a * value2 + b * value + c.
  • The units for the analog values will not be shown if station has not sent a UNIT-packet specifying what unit's to use.
  • The parameter names for the digital bits will be Bit1, Bit2, Bit3 (up to Bit8) if station has not sent a PARAM-packet that specifies the parameter names for each digital bit.
  • All bit labels will be named "On" if station has not sent a UNIT-packet that specifies the label of each bit.
  • A bit is considered to be On when the bit is 1 if station has not sent a BITS-packet that specifies another "Bit sense" (a BITS-packet specify the state of the bits that match the BIT labels)